Terminal Aerodrome Forecast
Issued by NWS Binghamton, NY

Home | Current Version | Previous Version | Text Only | Print | Product List | Glossary On
Versions: 1 2 3 4 5 6 7 8 9 10 11 12 13 14 15 16 17 18 19
469
FTUS41 KBGM 310314 AAE
TAFBGM
TAF AMD
KBGM 310314Z 3103/3124 11006KT P6SM BKN012
      TEMPO 3103/3105 5SM BR OVC008
     FM310500 12008KT 3SM -SHRA BR OVC012
      TEMPO 3107/3111 2SM SHRA BR OVC008
     FM311600 VRB04KT P6SM -SHRA OVC025=

USA.gov is the U.S. government's official web portal to all federal, state and local government web resources and services.